CDT,Max TemperatureF,Mean TemperatureF,Min TemperatureF,Max Dew PointF,MeanDew PointF,Min DewpointF,Max Humidity, Mean Humidity, Min Humidity, Max Sea Level PressureIn, Mean Sea Level PressureIn, Min Sea Level PressureIn, Max VisibilityMiles, Mean VisibilityMiles, Min VisibilityMiles, Max Wind SpeedMPH, Mean Wind SpeedMPH, Max Gust SpeedMPH,PrecipitationIn, CloudCover, Events, WindDirDegrees
2012-9-1,87,79,71,73,71,70,94,84,55,30.21,30.14,30.08,10,10,9,12,2,16,0.02,2,,220
2012-9-2,87,78,69,73,70,66,94,78,58,30.09,30.01,29.93,10,10,7,14,3,22,0.13,2,Thunderstorm,228
2012-9-3,80,76,71,73,70,66,94,87,74,30.00,29.94,29.89,10,10,2,13,5,24,1.07,6,Thunderstorm,212
2012-9-4,82,76,71,73,71,70,94,87,74,29.94,29.91,29.88,10,9,3,8,1,,0.00,6,,168
2012-9-5,87,80,73,72,71,68,94,79,55,29.97,29.92,29.87,10,10,8,8,1,,0.00,5,,176
2012-9-6,87,79,71,72,70,68,94,80,52,30.02,29.96,29.90,10,10,8,6,2,,0.00,3,,283
2012-9-7,91,78,66,72,69,64,100,76,43,30.01,29.93,29.83,10,9,0,7,1,,0.00,1,,188
2012-9-8,80,70,60,72,66,57,94,80,61,29.96,29.87,29.83,10,10,5,15,4,22,0.00,3,,316
2012-9-9,78,68,57,57,54,48,88,68,34,30.07,30.00,29.93,10,10,10,10,3,20,0.00,0,,348
2012-9-10,82,68,53,61,55,50,94,69,35,30.15,30.10,30.06,10,10,7,9,1,,0.00,0,,8
2012-9-11,82,70,57,61,57,54,94,69,37,30.25,30.19,30.13,10,10,9,9,1,,0.00,2,,130
2012-9-12,82,72,62,61,58,52,88,68,35,30.33,30.25,30.21,10,10,9,13,2,18,0.00,4,,102
2012-9-13,82,70,59,61,58,55,88,70,42,30.33,30.25,30.20,10,10,10,13,3,,0.00,2,,72
2012-9-14,82,70,57,64,60,55,94,75,48,30.27,30.22,30.18,10,10,9,9,2,,0.00,1,,65
2012-9-15,84,70,57,64,60,55,94,71,40,30.22,30.16,30.10,10,10,10,7,1,,0.00,0,,63
2012-9-16,84,73,62,68,63,59,94,76,48,30.12,30.07,30.02,10,10,10,8,1,,0.00,2,,78
2012-9-17,82,75,68,72,67,64,94,84,58,30.04,29.90,29.77,10,10,4,13,3,20,0.41,5,Thunderstorm,163
2012-9-18,77,68,59,68,63,52,94,82,61,30.02,29.83,29.71,10,10,4,15,5,25,1.49,4,Thunderstorm,329
2012-9-19,75,62,48,54,49,45,94,66,41,30.12,30.07,30.02,10,10,8,12,5,,0.00,0,,352
2012-9-20,78,62,46,61,53,45,94,75,39,30.14,30.09,30.03,10,10,10,6,1,,0.00,0,,128
2012-9-21,82,66,51,63,56,48,94,75,39,30.11,30.05,29.98,10,9,0,9,1,,0.00,1,,241
2012-9-22,84,70,55,64,57,50,94,71,42,30.12,30.05,30.00,10,10,7,15,3,23,0.00,1,,280
2012-9-23,78,64,50,54,47,41,94,64,34,30.21,30.16,30.12,10,10,10,10,2,,0.00,0,,334
2012-9-24,75,58,42,48,44,39,88,64,33,30.26,30.19,30.14,10,10,10,14,2,18,0.00,0,,43
2012-9-25,80,63,46,61,51,43,94,72,26,30.22,30.17,30.13,10,10,10,7,1,,0.00,0,,147
2012-9-26,82,66,51,64,57,48,94,75,42,30.22,30.17,30.13,10,10,9,8,1,,0.00,1,,197
2012-9-27,84,70,57,66,61,54,94,76,48,30.23,30.16,30.09,10,10,5,5,0,,0.00,1,,126
2012-9-28,84,72,59,66,62,55,94,77,45,30.15,30.08,30.01,10,10,9,8,0,,0.00,1,,287
2012-9-29,80,72,64,66,64,59,94,78,58,30.04,29.98,29.91,10,10,10,8,1,,0.00,1,,332
2012-9-30,69,64,60,64,60,55,94,85,68,29.94,29.85,29.73,10,8,3,10,4,,1.01,3,,56